Time;durP1;ratioP1;P1;durP2;ratioP2;P2;SDS_P1;SDS_P2;PMS_P1;PMS_P2;Temp;Humidity;BMP_temperature;BMP_pressure;BME280_temperature;BME280_humidity;BME280_pressure;Samples;Min_cycle;Max_cycle;Signal;HPM_P1;HPM_P2
2022/07/10 00:01:16;;;;;;;10.33;1.90;;;;;;;;;;4991669;28;20485;-60
2022/07/10 00:03:44;;;;;;;7.73;2.37;;;;;;;;;;4992044;28;20393;-59
2022/07/10 00:06:10;;;;;;;8.80;2.07;;;;;;;;;;4992013;28;20412;-60
2022/07/10 00:08:36;;;;;;;12.37;2.30;;;;;;;;;;4991993;28;20050;-60
2022/07/10 00:11:02;;;;;;;10.90;1.87;;;;;;;;;;4991932;28;20443;-59
2022/07/10 00:13:28;;;;;;;9.37;1.70;;;;;;;;;;4991402;28;20042;-60
2022/07/10 00:15:54;;;;;;;6.30;1.70;;;;;;;;;;4991004;28;20049;-59
2022/07/10 00:18:20;;;;;;;11.07;1.70;;;;;;;;;;4991497;28;20476;-59
2022/07/10 00:20:46;;;;;;;9.37;1.63;;;;;;;;;;4991410;28;20046;-59
2022/07/10 00:23:12;;;;;;;10.20;1.87;;;;;;;;;;4990473;28;20089;-59
2022/07/10 00:25:38;;;;;;;7.57;1.43;;;;;;;;;;4991590;28;20129;-60
2022/07/10 00:28:04;;;;;;;6.93;2.50;;;;;;;;;;4991238;28;20060;-59
2022/07/10 00:30:30;;;;;;;7.80;1.97;;;;;;;;;;4991489;28;20054;-59
2022/07/10 00:32:56;;;;;;;4.80;1.40;;;;;;;;;;4991039;28;20042;-59
2022/07/10 00:35:22;;;;;;;8.30;1.60;;;;;;;;;;4991805;28;20413;-59
2022/07/10 00:37:48;;;;;;;12.43;1.83;;;;;;;;;;4991141;28;20046;-59
2022/07/10 00:40:14;;;;;;;10.27;2.47;;;;;;;;;;4991237;28;20045;-60
2022/07/10 00:42:40;;;;;;;8.83;2.00;;;;;;;;;;4990941;28;20042;-59
2022/07/10 00:45:06;;;;;;;13.97;1.80;;;;;;;;;;4990236;28;20794;-59
2022/07/10 00:47:32;;;;;;;10.77;1.80;;;;;;;;;;4990192;28;20129;-59
2022/07/10 00:49:58;;;;;;;7.27;1.57;;;;;;;;;;4990054;28;20077;-59
2022/07/10 00:52:24;;;;;;;12.40;2.13;;;;;;;;;;4987700;28;20074;-59
2022/07/10 00:54:51;;;;;;;8.40;1.77;;;;;;;;;;4990823;28;20073;-59
2022/07/10 00:57:17;;;;;;;10.03;2.03;;;;;;;;;;4990906;28;20504;-59
2022/07/10 00:59:44;;;;;;;8.50;2.00;;;;;;;;;;4990808;28;20049;-59
2022/07/10 01:02:10;;;;;;;13.87;1.80;;;;;;;;;;4989537;28;20092;-59
2022/07/10 01:04:36;;;;;;;10.10;2.20;;;;;;;;;;4990845;28;20516;-59
2022/07/10 01:07:03;;;;;;;6.20;1.37;;;;;;;;;;4990515;28;20074;-60
2022/07/10 01:09:29;;;;;;;11.47;1.93;;;;;;;;;;4990322;28;20042;-59
2022/07/10 01:11:55;;;;;;;11.70;2.57;;;;;;;;;;4990812;28;20046;-59
2022/07/10 01:14:22;;;;;;;10.83;2.00;;;;;;;;;;4990194;28;20049;-59
2022/07/10 01:16:48;;;;;;;10.83;2.40;;;;;;;;;;4989892;28;20073;-59
2022/07/10 01:19:14;;;;;;;7.37;3.27;;;;;;;;;;4989705;28;20046;-59
2022/07/10 01:21:40;;;;;;;12.77;2.20;;;;;;;;;;4989871;28;20046;-60
2022/07/10 01:24:07;;;;;;;11.57;2.63;;;;;;;;;;4990495;28;20054;-59
2022/07/10 01:26:34;;;;;;;11.33;2.17;;;;;;;;;;4990178;28;20049;-59
2022/07/10 01:29:03;;;;;;;11.13;2.23;;;;;;;;;;4990269;28;20061;-59
2022/07/10 01:31:29;;;;;;;7.20;2.03;;;;;;;;;;4989911;28;20046;-59
2022/07/10 01:33:55;;;;;;;12.70;2.77;;;;;;;;;;4989592;28;20045;-59
2022/07/10 01:36:22;;;;;;;14.60;2.63;;;;;;;;;;4990196;28;20100;-59
2022/07/10 01:38:51;;;;;;;13.17;2.40;;;;;;;;;;4990253;28;20050;-59
2022/07/10 01:41:17;;;;;;;11.67;2.30;;;;;;;;;;4990214;28;20046;-59
2022/07/10 01:43:44;;;;;;;10.37;2.77;;;;;;;;;;4989868;28;20050;-59
2022/07/10 01:46:11;;;;;;;10.60;2.67;;;;;;;;;;4989808;28;20061;-59
2022/07/10 01:48:37;;;;;;;12.17;2.67;;;;;;;;;;4989780;28;20046;-59
2022/07/10 01:51:04;;;;;;;11.13;2.17;;;;;;;;;;4989709;28;20508;-59
2022/07/10 01:53:30;;;;;;;11.93;1.90;;;;;;;;;;4989703;28;20042;-59
2022/07/10 01:55:56;;;;;;;11.07;2.20;;;;;;;;;;4990161;28;20116;-59
2022/07/10 01:58:22;;;;;;;17.47;2.60;;;;;;;;;;4989797;28;20082;-59
2022/07/10 02:00:48;;;;;;;11.77;2.00;;;;;;;;;;4989832;28;20512;-60
2022/07/10 02:05:59;;;;;;;8.80;1.77;;;;;;;;;;4989943;28;20085;-59
2022/07/10 02:08:25;;;;;;;8.60;1.80;;;;;;;;;;4989324;28;20424;-59
2022/07/10 02:10:51;;;;;;;9.13;1.90;;;;;;;;;;4989670;28;20106;-59
2022/07/10 02:13:20;;;;;;;7.10;1.97;;;;;;;;;;4987738;28;20487;-59
2022/07/10 02:15:46;;;;;;;8.37;2.23;;;;;;;;;;4988880;28;20046;-59
2022/07/10 02:18:13;;;;;;;10.00;1.80;;;;;;;;;;4989144;28;20038;-59
2022/07/10 02:20:39;;;;;;;11.90;2.37;;;;;;;;;;4988999;28;20104;-59
2022/07/10 02:23:06;;;;;;;7.53;2.00;;;;;;;;;;4989228;28;20505;-59
2022/07/10 02:25:32;;;;;;;9.13;2.03;;;;;;;;;;4989240;28;20413;-59
2022/07/10 02:27:58;;;;;;;11.23;1.93;;;;;;;;;;4988988;28;20054;-60
2022/07/10 02:30:24;;;;;;;8.63;2.30;;;;;;;;;;4989017;28;20038;-59
2022/07/10 02:32:51;;;;;;;11.27;2.63;;;;;;;;;;4989221;28;20050;-60
2022/07/10 02:35:17;;;;;;;12.00;2.20;;;;;;;;;;4989004;28;20065;-59
2022/07/10 02:37:43;;;;;;;6.30;1.50;;;;;;;;;;4983033;28;20050;-59
2022/07/10 02:40:09;;;;;;;8.23;2.00;;;;;;;;;;4989327;28;20521;-59
2022/07/10 02:42:35;;;;;;;9.93;2.33;;;;;;;;;;4988963;28;20069;-59
2022/07/10 02:45:01;;;;;;;15.67;2.43;;;;;;;;;;4989478;28;20140;-59
2022/07/10 02:47:27;;;;;;;12.37;2.47;;;;;;;;;;4988387;28;20052;-59
2022/07/10 02:49:53;;;;;;;9.90;2.10;;;;;;;;;;4986079;28;20048;-60
2022/07/10 02:52:19;;;;;;;9.10;1.93;;;;;;;;;;4989096;28;20143;-59
2022/07/10 02:54:45;;;;;;;16.37;2.33;;;;;;;;;;4988946;28;20081;-59
2022/07/10 02:57:11;;;;;;;14.93;2.60;;;;;;;;;;4988604;28;20125;-59
2022/07/10 02:59:37;;;;;;;6.70;1.77;;;;;;;;;;4988941;28;20062;-59
2022/07/10 03:02:03;;;;;;;15.40;2.20;;;;;;;;;;4988784;28;20045;-59
2022/07/10 03:04:29;;;;;;;12.30;2.57;;;;;;;;;;4988613;28;20389;-59
2022/07/10 03:06:55;;;;;;;8.47;1.70;;;;;;;;;;4988570;28;20412;-59
2022/07/10 03:09:21;;;;;;;6.83;1.70;;;;;;;;;;4984203;28;20673;-59
2022/07/10 03:11:47;;;;;;;9.23;2.23;;;;;;;;;;4989688;28;20086;-59
2022/07/10 03:14:13;;;;;;;8.13;2.47;;;;;;;;;;4988536;28;20046;-59
2022/07/10 03:16:39;;;;;;;11.70;2.50;;;;;;;;;;4988176;28;20042;-59
2022/07/10 03:19:05;;;;;;;11.60;2.07;;;;;;;;;;4992667;28;20046;-59
2022/07/10 03:21:31;;;;;;;14.33;2.33;;;;;;;;;;4992503;28;20042;-59
2022/07/10 03:23:57;;;;;;;16.27;2.97;;;;;;;;;;4992403;28;20051;-59
2022/07/10 03:26:23;;;;;;;10.93;2.07;;;;;;;;;;4992178;28;20421;-59
2022/07/10 03:28:49;;;;;;;13.93;1.93;;;;;;;;;;4991389;28;20057;-59
2022/07/10 03:31:15;;;;;;;9.10;2.30;;;;;;;;;;4992601;28;20046;-60
2022/07/10 03:33:41;;;;;;;7.27;2.33;;;;;;;;;;4984366;28;20039;-59
2022/07/10 03:36:07;;;;;;;5.83;1.30;;;;;;;;;;4991689;28;20424;-60
2022/07/10 03:38:33;;;;;;;9.40;1.90;;;;;;;;;;4992268;28;20049;-59
2022/07/10 03:40:59;;;;;;;10.13;1.90;;;;;;;;;;4991565;28;20046;-59
2022/07/10 03:43:25;;;;;;;8.20;1.97;;;;;;;;;;4990847;28;20035;-59
2022/07/10 03:45:52;;;;;;;10.27;2.10;;;;;;;;;;4992203;28;20129;-59
2022/07/10 03:48:18;;;;;;;10.63;2.00;;;;;;;;;;4972475;28;20050;-59
2022/07/10 03:50:44;;;;;;;10.53;1.93;;;;;;;;;;4972442;28;20043;-59
2022/07/10 03:53:10;;;;;;;10.50;2.37;;;;;;;;;;4971855;28;20059;-59
2022/07/10 03:55:36;;;;;;;16.83;3.70;;;;;;;;;;4972396;28;20055;-60
2022/07/10 03:58:02;;;;;;;6.43;1.60;;;;;;;;;;4972124;28;20105;-60
2022/07/10 04:00:32;;;;;;;10.53;1.77;;;;;;;;;;4988714;28;20103;-59
2022/07/10 04:02:58;;;;;;;9.27;1.53;;;;;;;;;;4991038;28;20054;-60
2022/07/10 04:05:25;;;;;;;12.70;2.23;;;;;;;;;;4991149;28;20042;-59
2022/07/10 04:07:51;;;;;;;9.33;1.57;;;;;;;;;;4991659;28;20066;-60
2022/07/10 04:10:17;;;;;;;12.07;1.50;;;;;;;;;;4991685;28;20050;-60
2022/07/10 04:12:43;;;;;;;10.00;1.80;;;;;;;;;;4990878;28;20042;-60
2022/07/10 04:15:10;;;;;;;11.13;1.57;;;;;;;;;;4991286;28;20137;-60
2022/07/10 04:17:35;;;;;;;6.47;1.37;;;;;;;;;;4991041;28;20565;-59
2022/07/10 04:20:01;;;;;;;8.43;1.83;;;;;;;;;;4991431;28;20039;-60
2022/07/10 04:22:28;;;;;;;16.70;2.80;;;;;;;;;;4991352;28;20054;-60
2022/07/10 04:24:54;;;;;;;12.47;2.20;;;;;;;;;;4990337;28;20108;-59
2022/07/10 04:27:20;;;;;;;11.53;1.83;;;;;;;;;;4990387;28;20054;-59
2022/07/10 04:29:47;;;;;;;8.93;2.00;;;;;;;;;;4990559;28;20141;-59
2022/07/10 04:32:13;;;;;;;13.80;1.53;;;;;;;;;;4990727;28;20128;-60
2022/07/10 04:34:39;;;;;;;10.00;1.90;;;;;;;;;;4991188;28;20054;-60
2022/07/10 04:37:07;;;;;;;9.67;1.87;;;;;;;;;;4990707;28;20072;-59
2022/07/10 04:39:33;;;;;;;6.87;1.50;;;;;;;;;;4986204;28;20054;-59
2022/07/10 04:41:59;;;;;;;14.57;1.60;;;;;;;;;;4981764;28;20047;-60
2022/07/10 04:44:25;;;;;;;8.00;1.40;;;;;;;;;;4984214;28;20042;-59
2022/07/10 04:46:51;;;;;;;7.50;1.20;;;;;;;;;;4986034;28;20496;-60
2022/07/10 04:49:17;;;;;;;8.80;1.37;;;;;;;;;;4985738;28;20169;-60
2022/07/10 04:51:43;;;;;;;6.17;1.20;;;;;;;;;;4980513;28;20141;-60
2022/07/10 04:54:09;;;;;;;10.00;2.23;;;;;;;;;;4985690;28;20524;-60
2022/07/10 04:56:35;;;;;;;10.13;2.20;;;;;;;;;;4984076;28;20096;-60
2022/07/10 04:59:02;;;;;;;8.73;1.47;;;;;;;;;;4980859;28;20039;-60
2022/07/10 05:01:28;;;;;;;8.77;1.27;;;;;;;;;;4977837;28;20617;-60
2022/07/10 05:03:54;;;;;;;9.53;1.83;;;;;;;;;;4976485;28;20046;-60
2022/07/10 05:06:20;;;;;;;14.97;2.20;;;;;;;;;;4978777;28;20047;-60
2022/07/10 05:08:46;;;;;;;15.53;1.70;;;;;;;;;;4977341;28;20086;-60
2022/07/10 05:11:12;;;;;;;7.47;1.60;;;;;;;;;;4978219;28;20046;-59
2022/07/10 05:13:38;;;;;;;18.07;2.33;;;;;;;;;;4977458;28;20058;-61
2022/07/10 05:16:05;;;;;;;9.37;1.50;;;;;;;;;;4979389;28;20500;-60
2022/07/10 05:18:31;;;;;;;9.53;2.10;;;;;;;;;;4980575;28;20042;-59
2022/07/10 05:20:57;;;;;;;13.77;1.83;;;;;;;;;;4982249;28;20113;-60
2022/07/10 05:23:23;;;;;;;5.40;1.37;;;;;;;;;;4981237;28;20054;-59
2022/07/10 05:25:49;;;;;;;11.20;1.97;;;;;;;;;;4988968;28;20038;-59
2022/07/10 05:28:15;;;;;;;8.70;1.63;;;;;;;;;;4988564;28;20412;-60
2022/07/10 05:30:42;;;;;;;9.90;1.67;;;;;;;;;;4980846;28;20044;-60
2022/07/10 05:33:08;;;;;;;6.93;1.60;;;;;;;;;;4988048;28;20061;-60
2022/07/10 05:35:34;;;;;;;11.10;2.17;;;;;;;;;;4988448;28;20088;-60
2022/07/10 05:38:00;;;;;;;12.87;1.97;;;;;;;;;;4988901;28;20046;-59
2022/07/10 05:40:26;;;;;;;7.97;1.80;;;;;;;;;;4989156;28;20061;-60
2022/07/10 05:42:52;;;;;;;8.20;1.90;;;;;;;;;;4988216;28;20042;-59
2022/07/10 05:45:18;;;;;;;6.53;2.00;;;;;;;;;;4987728;28;20042;-60
2022/07/10 05:47:44;;;;;;;9.73;2.20;;;;;;;;;;4988306;28;20042;-60
2022/07/10 05:50:12;;;;;;;8.87;1.70;;;;;;;;;;4988218;28;20082;-60
2022/07/10 05:52:38;;;;;;;8.27;1.73;;;;;;;;;;4988085;28;20046;-60
2022/07/10 05:55:04;;;;;;;8.83;1.77;;;;;;;;;;4988210;28;20050;-60
2022/07/10 05:57:31;;;;;;;6.77;1.80;;;;;;;;;;4987869;28;20049;-60
2022/07/10 05:59:57;;;;;;;4.70;1.77;;;;;;;;;;4988050;28;20144;-60
2022/07/10 06:02:23;;;;;;;6.23;2.13;;;;;;;;;;4987681;28;20046;-60
2022/07/10 06:04:49;;;;;;;8.40;1.73;;;;;;;;;;4988073;28;20042;-60
2022/07/10 06:07:16;;;;;;;7.77;1.83;;;;;;;;;;4988176;28;20057;-60
2022/07/10 06:09:42;;;;;;;6.63;1.57;;;;;;;;;;4987629;28;20045;-60
2022/07/10 06:12:09;;;;;;;7.20;2.00;;;;;;;;;;4988376;28;20508;-60
2022/07/10 06:14:35;;;;;;;7.23;2.03;;;;;;;;;;4987647;28;20054;-60
2022/07/10 06:17:02;;;;;;;6.40;1.63;;;;;;;;;;4988243;28;20548;-60
2022/07/10 06:19:28;;;;;;;7.27;1.67;;;;;;;;;;4987653;28;20133;-60
2022/07/10 06:24:39;;;;;;;9.63;1.97;;;;;;;;;;4987963;28;20051;-59
2022/07/10 06:27:05;;;;;;;9.47;2.47;;;;;;;;;;4981416;28;20042;-60
2022/07/10 06:29:31;;;;;;;7.33;1.90;;;;;;;;;;4987047;28;20039;-60
2022/07/10 06:31:58;;;;;;;6.43;1.70;;;;;;;;;;4987880;28;20121;-60
2022/07/10 06:34:24;;;;;;;8.73;1.97;;;;;;;;;;4988495;28;20074;-60
2022/07/10 06:36:50;;;;;;;7.40;1.77;;;;;;;;;;4987963;28;20047;-60
2022/07/10 06:39:16;;;;;;;6.20;1.90;;;;;;;;;;4988622;28;20051;-60
2022/07/10 06:41:42;;;;;;;5.67;1.50;;;;;;;;;;4987903;28;20054;-60
2022/07/10 06:44:08;;;;;;;5.30;1.60;;;;;;;;;;4987371;28;20042;-60
2022/07/10 06:46:34;;;;;;;5.73;1.50;;;;;;;;;;4987645;28;20429;-60
2022/07/10 06:49:00;;;;;;;6.33;1.63;;;;;;;;;;4991869;28;20500;-60
2022/07/10 06:51:26;;;;;;;8.63;1.73;;;;;;;;;;4991553;28;20038;-60
2022/07/10 06:53:52;;;;;;;11.63;2.73;;;;;;;;;;4989242;28;20042;-60
2022/07/10 06:56:19;;;;;;;8.83;1.90;;;;;;;;;;4988523;28;20042;-60
2022/07/10 06:58:45;;;;;;;11.07;2.30;;;;;;;;;;4991523;28;20046;-60
2022/07/10 07:01:11;;;;;;;9.87;2.00;;;;;;;;;;4991659;28;20038;-60
2022/07/10 07:03:37;;;;;;;9.67;2.10;;;;;;;;;;4996563;28;20122;-60
2022/07/10 07:06:03;;;;;;;6.37;1.40;;;;;;;;;;4991492;28;20485;-60
2022/07/10 07:08:30;;;;;;;8.90;1.73;;;;;;;;;;4987707;28;20046;-60
2022/07/10 07:10:56;;;;;;;6.50;1.70;;;;;;;;;;4992210;28;20051;-60
2022/07/10 07:13:22;;;;;;;8.73;1.73;;;;;;;;;;4991656;28;20047;-60
2022/07/10 07:15:58;;;;;;;6.43;1.67;;;;;;;;;;4992195;28;20093;-59
2022/07/10 07:18:31;;;;;;;6.67;1.90;;;;;;;;;;4991666;28;20086;-60
2022/07/10 07:23:43;;;;;;;5.87;1.50;;;;;;;;;;4992059;28;20169;-60
2022/07/10 07:26:09;;;;;;;10.13;2.03;;;;;;;;;;4990875;28;20492;-59
2022/07/10 07:28:35;;;;;;;6.47;1.60;;;;;;;;;;4991865;28;20050;-59
2022/07/10 07:31:01;;;;;;;10.23;2.17;;;;;;;;;;4991925;28;20057;-60
2022/07/10 07:33:27;;;;;;;6.57;1.70;;;;;;;;;;4991592;28;20050;-61
2022/07/10 07:35:53;;;;;;;8.27;2.40;;;;;;;;;;4991696;28;20532;-60
2022/07/10 07:38:19;;;;;;;12.23;2.67;;;;;;;;;;4991627;28;20046;-61
2022/07/10 07:40:45;;;;;;;19.43;3.57;;;;;;;;;;4991401;28;20137;-62
2022/07/10 07:43:12;;;;;;;10.40;2.73;;;;;;;;;;4991414;28;20086;-62
2022/07/10 07:45:38;;;;;;;11.20;2.77;;;;;;;;;;4973913;28;20396;-62
2022/07/10 07:48:04;;;;;;;11.13;2.50;;;;;;;;;;4991755;28;20046;-62
2022/07/10 07:50:32;;;;;;;7.30;3.03;;;;;;;;;;4991442;28;20073;-62
2022/07/10 07:52:58;;;;;;;8.57;1.80;;;;;;;;;;4991930;28;20100;-61
2022/07/10 07:55:24;;;;;;;10.83;2.60;;;;;;;;;;4991188;28;20096;-62
2022/07/10 07:57:54;;;;;;;4.63;1.90;;;;;;;;;;4991039;28;20165;-61
2022/07/10 08:00:22;;;;;;;7.90;1.97;;;;;;;;;;4991427;28;20057;-61
2022/07/10 08:02:48;;;;;;;6.77;1.80;;;;;;;;;;4991150;28;20051;-61
2022/07/10 08:05:14;;;;;;;9.63;2.30;;;;;;;;;;4991162;28;20453;-61
2022/07/10 08:07:43;;;;;;;12.70;2.27;;;;;;;;;;4990940;28;20058;-61
2022/07/10 08:10:10;;;;;;;11.17;2.50;;;;;;;;;;4991647;28;20131;-61
2022/07/10 08:12:36;;;;;;;10.23;1.67;;;;;;;;;;4991055;28;20568;-61
2022/07/10 08:15:02;;;;;;;7.30;1.60;;;;;;;;;;4991726;28;20042;-61
2022/07/10 08:17:28;;;;;;;10.47;1.30;;;;;;;;;;4990810;28;20049;-61
2022/07/10 08:19:55;;;;;;;8.53;1.30;;;;;;;;;;4990709;28;20046;-61
2022/07/10 08:22:21;;;;;;;6.60;1.70;;;;;;;;;;4990724;28;20078;-61
2022/07/10 08:24:47;;;;;;;8.70;1.80;;;;;;;;;;4990873;28;20160;-62
2022/07/10 08:27:13;;;;;;;5.43;1.50;;;;;;;;;;4990573;28;20503;-61
2022/07/10 08:29:39;;;;;;;7.30;1.97;;;;;;;;;;4991160;28;20081;-62
2022/07/10 08:32:05;;;;;;;5.00;1.43;;;;;;;;;;4990728;28;20050;-61
2022/07/10 08:34:32;;;;;;;11.87;2.50;;;;;;;;;;4990175;28;20079;-62
2022/07/10 08:36:59;;;;;;;5.97;1.67;;;;;;;;;;4990434;28;20124;-62
2022/07/10 08:39:25;;;;;;;4.47;1.50;;;;;;;;;;4990698;28;20050;-61
2022/07/10 08:41:52;;;;;;;9.07;2.23;;;;;;;;;;4990509;28;20062;-62
2022/07/10 08:44:18;;;;;;;4.70;1.27;;;;;;;;;;4989655;28;20034;-62
2022/07/10 08:46:44;;;;;;;6.50;1.53;;;;;;;;;;4990560;28;20066;-62
2022/07/10 08:49:11;;;;;;;5.07;1.30;;;;;;;;;;4990550;28;20088;-62
2022/07/10 08:51:41;;;;;;;4.23;1.37;;;;;;;;;;4990136;28;20130;-61
2022/07/10 08:54:08;;;;;;;4.47;1.40;;;;;;;;;;4990137;28;20048;-61
2022/07/10 08:56:35;;;;;;;6.10;1.90;;;;;;;;;;4989758;28;20046;-61
2022/07/10 08:59:03;;;;;;;5.40;1.53;;;;;;;;;;4988432;28;20057;-61
2022/07/10 09:01:30;;;;;;;5.37;1.47;;;;;;;;;;4989527;28;20048;-62
2022/07/10 09:03:56;;;;;;;7.20;2.27;;;;;;;;;;4987447;28;20076;-62
2022/07/10 09:06:22;;;;;;;7.80;2.30;;;;;;;;;;4989900;28;20050;-62
2022/07/10 09:09:04;;;;;;;5.50;1.50;;;;;;;;;;4989128;28;20050;-61
2022/07/10 09:11:31;;;;;;;3.37;1.33;;;;;;;;;;4987493;28;20078;-62
2022/07/10 09:13:58;;;;;;;5.50;1.60;;;;;;;;;;4987795;28;20039;-62
2022/07/10 09:16:29;;;;;;;4.70;1.13;;;;;;;;;;4986964;28;20069;-61
2022/07/10 09:18:55;;;;;;;2.90;1.20;;;;;;;;;;4980346;28;20034;-61
2022/07/10 09:21:22;;;;;;;6.67;1.40;;;;;;;;;;4988986;28;20105;-62
2022/07/10 09:23:48;;;;;;;4.50;2.17;;;;;;;;;;4986920;28;20535;-62
2022/07/10 09:26:14;;;;;;;3.43;1.20;;;;;;;;;;4986054;28;20132;-61
2022/07/10 09:28:40;;;;;;;2.97;1.60;;;;;;;;;;4988938;28;20555;-62
2022/07/10 09:31:06;;;;;;;3.03;1.10;;;;;;;;;;4989116;28;20047;-62
2022/07/10 09:33:34;;;;;;;4.13;1.20;;;;;;;;;;4988931;28;20493;-61
2022/07/10 09:36:14;;;;;;;4.10;1.67;;;;;;;;;;4987491;28;21796;-62
2022/07/10 09:38:40;;;;;;;4.90;1.23;;;;;;;;;;4987960;28;20066;-62
2022/07/10 09:41:15;;;;;;;3.27;1.00;;;;;;;;;;4980754;28;20868;-62
2022/07/10 09:43:48;;;;;;;6.73;1.70;;;;;;;;;;4983695;28;20069;-62
2022/07/10 09:46:15;;;;;;;4.05;0.85;;;;;;;;;;4981232;28;20064;-62
2022/07/10 09:48:41;;;;;;;3.73;1.47;;;;;;;;;;4980976;28;20050;-62
2022/07/10 09:51:09;;;;;;;2.57;1.17;;;;;;;;;;4982925;28;20045;-62
2022/07/10 09:53:39;;;;;;;4.07;1.33;;;;;;;;;;4992643;28;20133;-62
2022/07/10 09:56:07;;;;;;;7.00;1.43;;;;;;;;;;4989095;28;20061;-62
2022/07/10 09:58:35;;;;;;;3.70;1.30;;;;;;;;;;4989167;28;20589;-62
2022/07/10 10:01:02;;;;;;;4.53;1.30;;;;;;;;;;4986840;28;20097;-62
2022/07/10 10:03:32;;;;;;;4.17;1.33;;;;;;;;;;4987649;28;20042;-62
2022/07/10 10:06:09;;;;;;;5.10;1.43;;;;;;;;;;4989462;28;20070;-62
2022/07/10 10:08:46;;;;;;;5.83;1.50;;;;;;;;;;4988702;28;20137;-62
2022/07/10 10:11:17;;;;;;;7.53;1.80;;;;;;;;;;4980514;28;20144;-62
2022/07/10 10:13:43;;;;;;;5.67;1.57;;;;;;;;;;4980061;28;20049;-62
2022/07/10 10:16:10;;;;;;;13.27;3.60;;;;;;;;;;4988348;28;20046;-63
2022/07/10 10:20:36;;;;;;;6.40;2.30;;;;;;;;;;4988763;28;20098;-62
2022/07/10 10:21:23;;;;;;;8.80;2.37;;;;;;;;;;4977640;28;20133;-62
2022/07/10 10:23:49;;;;;;;6.73;2.07;;;;;;;;;;4984214;28;20074;-62
2022/07/10 10:26:15;;;;;;;5.73;1.60;;;;;;;;;;4986743;28;20069;-61
2022/07/10 10:28:42;;;;;;;4.67;1.53;;;;;;;;;;4986031;28;20047;-62
2022/07/10 10:31:09;;;;;;;4.27;1.33;;;;;;;;;;4987959;28;20428;-63
2022/07/10 10:33:35;;;;;;;6.57;1.97;;;;;;;;;;4987860;28;20579;-62
2022/07/10 10:36:08;;;;;;;4.90;1.40;;;;;;;;;;4987595;28;20066;-62
2022/07/10 10:38:53;;;;;;;5.90;1.85;;;;;;;;;;4980362;28;20052;-62
2022/07/10 10:41:23;;;;;;;10.53;2.33;;;;;;;;;;4985294;28;20058;-62
2022/07/10 10:44:25;;;;;;;4.83;1.40;;;;;;;;;;4982217;28;20050;-62
2022/07/10 10:46:54;;;;;;;5.03;1.50;;;;;;;;;;4886120;29;20128;-62
2022/07/10 10:49:27;;;;;;;4.10;1.77;;;;;;;;;;4965703;28;20069;-62
2022/07/10 10:51:55;;;;;;;5.10;1.73;;;;;;;;;;4979537;28;20206;-62
2022/07/10 10:54:21;;;;;;;6.37;1.43;;;;;;;;;;4987884;28;20046;-62
2022/07/10 10:57:07;;;;;;;8.63;1.50;;;;;;;;;;4988793;28;20416;-62
2022/07/10 10:59:46;;;;;;;5.80;1.60;;;;;;;;;;4987355;28;20104;-62
2022/07/10 11:02:29;;;;;;;6.57;1.30;;;;;;;;;;4980902;28;20051;-62
2022/07/10 11:04:55;;;;;;;;;;;;;;;;;;4983588;28;20050;-62
2022/07/10 11:07:40;;;;;;;7.70;1.40;;;;;;;;;;4988271;28;20380;-62
2022/07/10 11:10:24;;;;;;;2.90;1.23;;;;;;;;;;4987206;28;20137;-62
2022/07/10 11:13:02;;;;;;;6.90;1.47;;;;;;;;;;4979133;28;20720;-62
2022/07/10 11:15:30;;;;;;;4.93;1.13;;;;;;;;;;4986972;28;20045;-61
2022/07/10 11:17:59;;;;;;;7.20;1.63;;;;;;;;;;4980699;28;20050;-62
2022/07/10 11:20:25;;;;;;;4.20;1.40;;;;;;;;;;4986624;28;20122;-64
2022/07/10 11:23:06;;;;;;;5.90;1.73;;;;;;;;;;4985790;28;20085;-61
2022/07/10 11:25:35;;;;;;;7.07;1.90;;;;;;;;;;4984147;28;20116;-62
2022/07/10 11:28:12;;;;;;;5.30;1.60;;;;;;;;;;4986235;28;20070;-61
2022/07/10 11:30:51;;;;;;;6.17;1.87;;;;;;;;;;4988697;28;20762;-62
2022/07/10 11:33:20;;;;;;;6.73;1.50;;;;;;;;;;4988429;28;20129;-61
2022/07/10 11:35:47;;;;;;;3.47;1.57;;;;;;;;;;4988338;28;20058;-62
2022/07/10 11:38:13;;;;;;;4.73;1.30;;;;;;;;;;4988851;28;20046;-61
2022/07/10 11:40:39;;;;;;;6.37;1.40;;;;;;;;;;4986816;28;20146;-61
2022/07/10 11:43:09;;;;;;;2.40;0.93;;;;;;;;;;4986874;28;20046;-61
2022/07/10 11:45:37;;;;;;;6.13;1.40;;;;;;;;;;4984302;28;20054;-61
2022/07/10 11:48:04;;;;;;;5.80;1.40;;;;;;;;;;4991277;28;20089;-62
2022/07/10 11:50:37;;;;;;;4.23;1.20;;;;;;;;;;4992405;28;20050;-61
2022/07/10 11:53:03;;;;;;;6.67;1.03;;;;;;;;;;4991100;28;20495;-60
2022/07/10 11:55:31;;;;;;;3.67;1.10;;;;;;;;;;4991287;28;20046;-60
2022/07/10 11:57:57;;;;;;;4.20;1.10;;;;;;;;;;4991359;28;20066;-60
2022/07/10 12:00:30;;;;;;;4.87;1.00;;;;;;;;;;4991478;28;20035;-60
2022/07/10 12:02:58;;;;;;;4.38;1.02;;;;;;;;;;4991007;28;20126;-60
2022/07/10 12:05:37;;;;;;;3.00;0.90;;;;;;;;;;4991248;28;20570;-60
2022/07/10 12:08:03;;;;;;;4.23;0.90;;;;;;;;;;4990896;28;20042;-60
2022/07/10 12:10:29;;;;;;;2.20;0.97;;;;;;;;;;4983781;28;20113;-60
2022/07/10 12:13:25;;;;;;;2.77;0.90;;;;;;;;;;4985705;28;20042;-60
2022/07/10 12:15:51;;;;;;;3.37;0.97;;;;;;;;;;4971405;28;20087;-60
2022/07/10 12:18:17;;;;;;;6.47;1.60;;;;;;;;;;4991549;28;20057;-60
2022/07/10 12:20:47;;;;;;;5.07;0.93;;;;;;;;;;4991002;28;20053;-60
2022/07/10 12:23:17;;;;;;;4.40;1.10;;;;;;;;;;4991206;28;20129;-60
2022/07/10 12:25:44;;;;;;;5.73;1.13;;;;;;;;;;4990502;28;20050;-60
2022/07/10 12:28:10;;;;;;;3.70;1.27;;;;;;;;;;4991085;28;20053;-60
2022/07/10 12:30:46;;;;;;;3.80;1.30;;;;;;;;;;4990599;28;20051;-60
2022/07/10 12:33:22;;;;;;;4.77;1.23;;;;;;;;;;4990475;28;20038;-60
2022/07/10 12:35:58;;;;;;;6.20;1.27;;;;;;;;;;4987785;28;20413;-60
2022/07/10 12:38:34;;;;;;;4.60;1.30;;;;;;;;;;4984034;28;20129;-60
2022/07/10 12:41:13;;;;;;;8.40;1.97;;;;;;;;;;4989907;28;20095;-60
2022/07/10 12:43:40;;;;;;;4.20;1.00;;;;;;;;;;4984107;28;20157;-60
2022/07/10 12:46:12;;;;;;;2.57;0.90;;;;;;;;;;4986438;28;20042;-60
2022/07/10 12:48:40;;;;;;;6.37;1.60;;;;;;;;;;4989448;28;20042;-60
2022/07/10 12:51:26;;;;;;;6.47;1.10;;;;;;;;;;4985715;28;20046;-60
2022/07/10 12:53:52;;;;;;;4.53;1.07;;;;;;;;;;4985285;28;20404;-60
2022/07/10 12:56:28;;;;;;;5.90;1.07;;;;;;;;;;4989451;28;20042;-60
2022/07/10 12:58:54;;;;;;;6.77;1.33;;;;;;;;;;4988653;28;20130;-61
2022/07/10 13:01:20;;;;;;;3.77;1.03;;;;;;;;;;4990028;28;20054;-59
2022/07/10 13:03:46;;;;;;;3.27;0.90;;;;;;;;;;4986285;28;20536;-59
2022/07/10 13:06:28;;;;;;;6.30;1.23;;;;;;;;;;4990209;28;20129;-59
2022/07/10 13:08:55;;;;;;;2.73;1.50;;;;;;;;;;4986699;28;20054;-59
2022/07/10 13:11:21;;;;;;;4.27;1.10;;;;;;;;;;4986392;28;20053;-59
2022/07/10 13:13:47;;;;;;;8.47;1.77;;;;;;;;;;4986943;28;20042;-59
2022/07/10 13:16:13;;;;;;;5.30;1.10;;;;;;;;;;4989035;28;20582;-59
2022/07/10 13:18:42;;;;;;;6.83;1.17;;;;;;;;;;4989791;28;20041;-59
2022/07/10 13:21:08;;;;;;;6.40;1.00;;;;;;;;;;4987186;28;20039;-60
2022/07/10 13:23:34;;;;;;;5.90;1.40;;;;;;;;;;4986986;28;20050;-60
2022/07/10 13:26:01;;;;;;;3.40;1.00;;;;;;;;;;4982599;28;20074;-61
2022/07/10 13:28:27;;;;;;;4.73;0.90;;;;;;;;;;4989494;28;20050;-61
2022/07/10 13:30:53;;;;;;;5.27;1.00;;;;;;;;;;4990078;28;20042;-61
2022/07/10 13:33:19;;;;;;;5.73;1.10;;;;;;;;;;4992089;28;20049;-61
2022/07/10 13:35:46;;;;;;;3.20;0.90;;;;;;;;;;4989053;28;20500;-61
2022/07/10 13:38:12;;;;;;;2.47;0.80;;;;;;;;;;4989558;28;20496;-61
2022/07/10 13:40:38;;;;;;;4.07;1.10;;;;;;;;;;4989171;28;20046;-61
2022/07/10 13:43:06;;;;;;;3.17;1.03;;;;;;;;;;4989939;28;20042;-60
2022/07/10 13:45:42;;;;;;;3.90;1.23;;;;;;;;;;4986121;28;20121;-61
2022/07/10 13:48:09;;;;;;;3.67;1.20;;;;;;;;;;4985539;28;20054;-61
2022/07/10 13:50:35;;;;;;;5.90;1.50;;;;;;;;;;4985149;28;20045;-61
2022/07/10 13:53:01;;;;;;;4.63;1.03;;;;;;;;;;4987454;28;20089;-61
2022/07/10 13:55:27;;;;;;;4.73;1.20;;;;;;;;;;4987486;28;20047;-61
2022/07/10 13:57:53;;;;;;;4.23;0.90;;;;;;;;;;4986955;28;20057;-61
2022/07/10 14:00:19;;;;;;;5.53;1.27;;;;;;;;;;4966743;28;20042;-61
2022/07/10 14:02:45;;;;;;;2.77;0.90;;;;;;;;;;4984199;28;20096;-61
2022/07/10 14:05:11;;;;;;;6.07;1.00;;;;;;;;;;4980821;28;20050;-60
2022/07/10 14:07:37;;;;;;;5.53;1.27;;;;;;;;;;4985099;28;20100;-60
2022/07/10 14:10:04;;;;;;;3.87;0.97;;;;;;;;;;4984523;28;20580;-61
2022/07/10 14:12:31;;;;;;;6.00;0.83;;;;;;;;;;4988337;28;20042;-60
2022/07/10 14:14:58;;;;;;;3.70;1.10;;;;;;;;;;4990091;28;20786;-60
2022/07/10 14:17:24;;;;;;;4.17;1.07;;;;;;;;;;4988774;28;20054;-60
2022/07/10 14:19:50;;;;;;;5.90;1.13;;;;;;;;;;4999265;28;20045;-60
2022/07/10 14:22:16;;;;;;;3.03;0.83;;;;;;;;;;4985901;28;20162;-61
2022/07/10 14:24:42;;;;;;;3.13;0.90;;;;;;;;;;4987410;28;20046;-60
2022/07/10 14:27:08;;;;;;;3.33;1.20;;;;;;;;;;4980471;28;20065;-60
2022/07/10 14:29:34;;;;;;;2.20;1.00;;;;;;;;;;4980344;28;20493;-60
2022/07/10 14:32:01;;;;;;;3.67;0.90;;;;;;;;;;4984614;28;20049;-60
2022/07/10 14:34:28;;;;;;;2.92;1.00;;;;;;;;;;4995245;28;20050;-60
2022/07/10 14:36:55;;;;;;;2.67;1.13;;;;;;;;;;4991208;28;20401;-61
2022/07/10 14:39:21;;;;;;;4.30;1.05;;;;;;;;;;4988778;28;20054;-60
2022/07/10 14:41:47;;;;;;;5.63;1.27;;;;;;;;;;4994883;28;20056;-60
2022/07/10 14:44:13;;;;;;;4.18;1.17;;;;;;;;;;4991434;28;20125;-60
2022/07/10 14:46:39;;;;;;;3.22;0.90;;;;;;;;;;4994012;28;20201;-60
2022/07/10 14:49:05;;;;;;;3.17;1.00;;;;;;;;;;5003241;28;20053;-60
2022/07/10 14:51:31;;;;;;;4.03;1.10;;;;;;;;;;5008485;28;20424;-60